Time;durP1;ratioP1;P1;durP2;ratioP2;P2;SDS_P1;SDS_P2;PMS_P1;PMS_P2;Temp;Humidity;BMP_temperature;BMP_pressure;BME280_temperature;BME280_humidity;BME280_pressure;Samples;Min_cycle;Max_cycle;Signal;HPM_P1;HPM_P2
2022/06/01 00:01:36;;;;;;;15.57;13.70;;;;;;;11.31;100.00;101268.91;5071720;28;20072;-69
2022/06/01 00:04:04;;;;;;;16.95;14.13;;;;;;;11.22;100.00;101275.59;5069814;28;20391;-68
2022/06/01 00:06:33;;;;;;;17.33;14.32;;;;;;;11.18;100.00;101274.09;5071167;28;20383;-69
2022/06/01 00:09:01;;;;;;;17.20;14.48;;;;;;;11.13;100.00;101274.34;5071241;28;20055;-72
2022/06/01 00:11:29;;;;;;;16.23;14.07;;;;;;;11.12;100.00;101269.19;5086616;28;20449;-69
2022/06/01 00:13:57;;;;;;;16.05;14.35;;;;;;;11.06;100.00;101267.75;5070868;28;20511;-69
2022/06/01 00:16:25;;;;;;;17.08;14.77;;;;;;;11.04;100.00;101269.63;5070852;28;20451;-68
2022/06/01 00:18:55;;;;;;;16.58;14.48;;;;;;;10.99;100.00;101269.09;5071070;28;20399;-68
2022/06/01 00:21:24;;;;;;;17.38;14.43;;;;;;;11.07;100.00;101269.47;5070937;28;20048;-68
2022/06/01 00:23:52;;;;;;;17.40;15.18;;;;;;;10.92;100.00;101263.34;5071151;28;20051;-69
2022/06/01 00:26:20;;;;;;;19.65;15.30;;;;;;;10.84;100.00;101270.84;5071219;28;20056;-69
2022/06/01 00:28:48;;;;;;;18.08;16.15;;;;;;;10.90;100.00;101267.84;5071209;28;20520;-69
2022/06/01 00:31:16;;;;;;;19.73;15.55;;;;;;;10.86;100.00;101279.47;5071202;28;20120;-69
2022/06/01 00:33:44;;;;;;;17.55;15.65;;;;;;;10.90;100.00;101275.72;5070910;28;20454;-68
2022/06/01 00:36:14;;;;;;;17.65;15.75;;;;;;;10.83;100.00;101269.16;5070856;28;20044;-69
2022/06/01 00:38:42;;;;;;;20.63;15.63;;;;;;;10.85;100.00;101272.50;5070776;28;20072;-69
2022/06/01 00:41:10;;;;;;;18.95;16.90;;;;;;;10.83;100.00;101274.41;5071146;28;20052;-69
2022/06/01 00:43:44;;;;;;;20.40;16.38;;;;;;;10.71;100.00;101275.97;5070854;28;20101;-69
2022/06/01 00:46:14;;;;;;;18.52;16.52;;;;;;;10.70;100.00;101278.69;5071163;28;20048;-68
2022/06/01 00:48:47;;;;;;;19.38;16.98;;;;;;;10.75;100.00;101281.91;5071129;28;20535;-68
2022/06/01 00:51:21;;;;;;;21.65;17.25;;;;;;;10.69;100.00;101292.78;5070953;28;20530;-68
2022/06/01 00:53:51;;;;;;;18.67;16.67;;;;;;;10.72;100.00;101275.03;5070824;28;20045;-68
2022/06/01 00:56:22;;;;;;;20.90;17.65;;;;;;;10.69;100.00;101287.50;5070725;28;20410;-68
2022/06/01 00:58:53;;;;;;;21.23;17.15;;;;;;;10.73;100.00;101274.09;5070938;28;20040;-67
2022/06/01 01:01:22;;;;;;;20.55;17.42;;;;;;;10.69;100.00;101269.97;5070782;28;20083;-68
2022/06/01 01:03:56;;;;;;;20.33;18.13;;;;;;;10.68;100.00;101285.84;5070636;28;20066;-68
2022/06/01 01:06:28;;;;;;;19.60;17.15;;;;;;;10.72;100.00;101274.22;5070778;28;20560;-68
2022/06/01 01:08:57;;;;;;;20.92;18.70;;;;;;;10.69;100.00;101291.00;5070915;28;20158;-69
2022/06/01 01:11:29;;;;;;;21.90;18.25;;;;;;;10.75;100.00;101281.91;5070790;28;20044;-69
2022/06/01 01:13:59;;;;;;;21.33;19.02;;;;;;;10.70;100.00;101292.69;5070970;28;20506;-69
2022/06/01 01:16:28;;;;;;;22.63;19.58;;;;;;;10.64;100.00;101288.63;5070849;28;20044;-68
2022/06/01 01:18:57;;;;;;;20.98;18.63;;;;;;;10.64;100.00;101291.25;5070535;28;20042;-69
2022/06/01 01:21:33;;;;;;;23.73;19.58;;;;;;;10.64;100.00;101291.25;5070581;28;20458;-72
2022/06/01 01:24:13;;;;;;;22.40;20.00;;;;;;;10.57;100.00;101289.94;5070656;28;20106;-71
2022/06/01 01:26:48;;;;;;;22.45;20.02;;;;;;;10.59;100.00;101288.06;5072778;28;20414;-69
2022/06/01 01:29:29;;;;;;;21.75;19.45;;;;;;;10.68;100.00;101286.69;5073711;28;20045;-70
2022/06/01 01:31:58;;;;;;;22.38;19.83;;;;;;;10.64;100.00;101283.38;5074107;28;20063;-69
2022/06/01 01:34:26;;;;;;;23.35;20.70;;;;;;;10.64;100.00;101283.38;5073652;28;20139;-68
2022/06/01 01:36:58;;;;;;;22.88;20.13;;;;;;;10.68;100.00;101291.09;5074076;28;20094;-68
2022/06/01 01:39:29;;;;;;;23.35;20.75;;;;;;;10.55;100.00;101291.81;5073727;28;20037;-69
2022/06/01 01:41:58;;;;;;;26.80;22.52;;;;;;;10.58;100.00;101291.63;5073792;28;20556;-68
2022/06/01 01:44:30;;;;;;;25.63;21.52;;;;;;;10.58;100.00;101281.13;5074037;28;20102;-68
2022/06/01 01:46:58;;;;;;;25.52;22.75;;;;;;;10.64;100.00;101262.31;5074053;28;20561;-68
2022/06/01 01:49:30;;;;;;;20.42;17.27;;;;;;;10.60;100.00;101260.81;5073564;28;20613;-68
2022/06/01 01:52:04;;;;;;;20.33;17.47;;;;;;;10.62;100.00;101258.09;5073944;28;20048;-69
2022/06/01 01:54:52;;;;;;;21.75;17.63;;;;;;;10.63;100.00;101263.28;5073453;28;20045;-69
2022/06/01 01:57:34;;;;;;;20.23;16.98;;;;;;;10.65;100.00;101260.56;5073786;28;20080;-69
2022/06/01 02:00:14;;;;;;;19.30;15.85;;;;;;;10.68;100.00;101264.81;5073522;28;20512;-69
2022/06/01 02:02:50;;;;;;;19.23;16.10;;;;;;;10.69;100.00;101258.56;5073177;28;20135;-69
2022/06/01 02:08:19;;;;;;;18.90;16.02;;;;;;;10.79;100.00;101259.75;5071803;28;20529;-69
2022/06/01 02:13:36;;;;;;;17.00;14.75;;;;;;;10.85;100.00;101255.91;5073130;28;20079;-69
2022/06/01 02:16:06;;;;;;;17.95;15.32;;;;;;;10.83;100.00;101269.16;5073176;28;20056;-69
2022/06/01 02:18:39;;;;;;;18.13;15.00;;;;;;;10.86;100.00;101265.50;5073076;28;20102;-69
2022/06/01 02:21:14;;;;;;;15.45;12.98;;;;;;;10.83;100.00;101269.16;5071868;28;20383;-70
2022/06/01 02:23:42;;;;;;;15.43;12.68;;;;;;;10.82;100.00;101267.44;5072902;28;20050;-69
2022/06/01 02:26:11;;;;;;;14.63;12.55;;;;;;;10.84;100.00;101270.84;5072704;28;20094;-69
2022/06/01 02:28:43;;;;;;;14.07;11.73;;;;;;;10.76;100.00;101267.81;5072631;28;20037;-68
2022/06/01 02:31:15;;;;;;;14.93;11.40;;;;;;;10.62;100.00;101277.38;5072850;28;20048;-69
2022/06/01 02:33:46;;;;;;;14.30;11.83;;;;;;;10.57;100.00;101258.38;5072822;28;20049;-68
2022/06/01 02:36:17;;;;;;;16.48;12.00;;;;;;;10.69;100.00;101258.56;5072724;28;20056;-69
2022/06/01 02:38:49;;;;;;;16.08;12.00;;;;;;;10.69;100.00;101255.94;5071495;28;20072;-68
2022/06/01 02:44:05;;;;;;;17.33;11.88;;;;;;;10.85;100.00;101254.09;5072615;28;20473;-69
2022/06/01 02:46:33;;;;;;;14.57;10.32;;;;;;;10.75;100.00;101255.59;5072667;28;20044;-67
2022/06/01 02:49:01;;;;;;;14.57;10.80;;;;;;;10.58;100.00;101270.59;5072541;28;20083;-68
2022/06/01 02:51:29;;;;;;;14.77;10.45;;;;;;;10.65;100.00;101253.50;5072240;28;20048;-68
2022/06/01 02:53:57;;;;;;;13.50;9.35;;;;;;;10.73;100.00;101258.31;5072206;28;20418;-70
2022/06/01 02:56:26;;;;;;;14.48;10.38;;;;;;;10.74;100.00;101260.00;5072330;28;20445;-67
2022/06/01 02:58:56;;;;;;;12.82;9.68;;;;;;;10.73;100.00;101265.34;5087857;28;20127;-67
2022/06/01 03:01:25;;;;;;;12.93;9.85;;;;;;;10.61;100.00;101270.41;5072327;28;20058;-68
2022/06/01 03:03:54;;;;;;;14.43;9.02;;;;;;;10.56;100.00;101269.81;5071963;28;20056;-69
2022/06/01 03:06:22;;;;;;;15.25;9.18;;;;;;;10.44;100.00;101262.66;5072146;28;20510;-69
2022/06/01 03:09:11;;;;;;;13.27;9.30;;;;;;;10.58;100.00;101260.06;5072005;28;20454;-70
2022/06/01 03:11:39;;;;;;;16.55;9.65;;;;;;;10.39;100.00;101264.69;5070306;28;20055;-70
2022/06/01 03:14:07;;;;;;;15.82;10.57;;;;;;;10.42;100.00;101259.28;5071854;28;20044;-70
2022/06/01 03:16:37;;;;;;;15.93;10.35;;;;;;;10.37;100.00;101263.94;5071784;28;20047;-70
2022/06/01 03:19:05;;;;;;;13.43;10.63;;;;;;;10.47;100.00;101263.31;5072000;28;20036;-70
2022/06/01 03:21:34;;;;;;;15.63;10.43;;;;;;;10.52;100.00;101255.16;5071750;28;20074;-70
2022/06/01 03:24:02;;;;;;;18.52;11.10;;;;;;;10.50;100.00;101264.94;5070704;28;20052;-70
2022/06/01 03:26:30;;;;;;;14.75;11.85;;;;;;;10.40;100.00;101255.88;5071658;28;20410;-69
2022/06/01 03:28:58;;;;;;;19.60;13.23;;;;;;;10.24;100.00;101251.47;5071541;28;20083;-68
2022/06/01 03:31:26;;;;;;;17.20;12.65;;;;;;;10.41;100.00;101252.31;5070130;28;20056;-68
2022/06/01 03:33:57;;;;;;;16.90;13.02;;;;;;;10.31;100.00;101242.28;5070370;28;20044;-68
2022/06/01 03:36:25;;;;;;;24.73;13.60;;;;;;;10.34;100.00;101243.91;5071458;28;20056;-68
2022/06/01 03:38:54;;;;;;;16.77;12.25;;;;;;;10.45;100.00;101238.06;5071488;28;20052;-71
2022/06/01 03:41:22;;;;;;;15.05;11.95;;;;;;;10.47;100.00;101244.91;5071501;28;20048;-68
2022/06/01 03:46:36;;;;;;;18.77;12.02;;;;;;;10.45;100.00;101238.06;5071610;28;20571;-68
2022/06/01 03:49:06;;;;;;;14.20;12.02;;;;;;;10.20;100.00;101242.06;5073213;28;20106;-71
2022/06/01 03:51:34;;;;;;;15.73;12.85;;;;;;;10.12;100.00;101233.78;5072126;28;20058;-70
2022/06/01 03:54:02;;;;;;;18.80;13.27;;;;;;;10.04;100.00;101241.25;5071473;28;20076;-71
2022/06/01 03:56:32;;;;;;;18.08;13.75;;;;;;;10.02;100.00;101243.09;5071477;28;20040;-71
2022/06/01 03:59:00;;;;;;;16.92;13.52;;;;;;;10.13;100.00;101243.38;5071524;28;20055;-70
2022/06/01 04:01:28;;;;;;;17.95;14.38;;;;;;;10.19;100.00;101253.50;5071536;28;20044;-68
2022/06/01 04:03:57;;;;;;;16.92;14.25;;;;;;;10.26;100.00;101260.09;5071109;28;20067;-71
2022/06/01 04:06:26;;;;;;;17.98;14.18;;;;;;;10.30;100.00;101269.50;5071162;28;20391;-71
2022/06/01 04:08:55;;;;;;;16.70;13.80;;;;;;;10.40;100.00;101264.63;5069917;28;20052;-68
2022/06/01 04:11:23;;;;;;;18.10;13.52;;;;;;;10.45;100.00;101259.09;5071241;28;20094;-68
2022/06/01 04:13:51;;;;;;;17.02;13.52;;;;;;;10.36;100.00;101262.25;5071055;28;20388;-71
2022/06/01 04:16:19;;;;;;;17.52;13.88;;;;;;;10.36;100.00;101264.88;5071069;28;20052;-71
2022/06/01 04:18:48;;;;;;;19.80;14.77;;;;;;;10.35;100.00;101268.44;5071064;28;20055;-71
2022/06/01 04:21:22;;;;;;;16.65;13.93;;;;;;;10.31;100.00;101265.13;5069886;28;20049;-71
2022/06/01 04:23:53;;;;;;;19.98;14.73;;;;;;;10.27;100.00;101259.19;5071064;28;20461;-69
2022/06/01 04:26:21;;;;;;;18.90;15.27;;;;;;;10.31;100.00;101260.69;5070992;28;20077;-68
2022/06/01 04:28:56;;;;;;;21.02;15.43;;;;;;;10.36;100.00;101265.75;5071006;28;20128;-68
2022/06/01 04:31:24;;;;;;;19.98;16.27;;;;;;;10.32;100.00;101267.66;5070985;28;20083;-68
2022/06/01 04:33:53;;;;;;;19.88;15.88;;;;;;;10.39;100.00;101269.94;5069872;28;20059;-68
2022/06/01 04:36:21;;;;;;;21.83;17.00;;;;;;;10.34;100.00;101277.25;5070928;28;20045;-71
2022/06/01 04:38:50;;;;;;;22.58;16.88;;;;;;;10.29;100.00;101269.59;5070924;28;20041;-71
2022/06/01 04:41:18;;;;;;;21.90;18.13;;;;;;;10.26;100.00;101269.78;5070789;28;20048;-68
2022/06/01 04:43:47;;;;;;;23.30;18.08;;;;;;;10.36;100.00;101273.63;5070699;28;20048;-70
2022/06/01 04:46:15;;;;;;;24.58;19.48;;;;;;;10.37;100.00;101271.84;5070668;28;20080;-68
2022/06/01 04:48:43;;;;;;;24.55;20.10;;;;;;;10.38;100.00;101271.75;5070877;28;20048;-68
2022/06/01 04:51:11;;;;;;;24.75;21.17;;;;;;;10.38;100.00;101269.13;5070829;28;20128;-68
2022/06/01 04:53:43;;;;;;;27.92;22.20;;;;;;;10.47;100.00;101263.31;5070770;28;20124;-72
2022/06/01 04:56:12;;;;;;;29.20;24.17;;;;;;;10.48;100.00;101265.03;5070728;28;20385;-71
2022/06/01 04:58:40;;;;;;;31.25;24.80;;;;;;;10.55;100.00;101270.78;5070773;28;20073;-71
2022/06/01 05:01:08;;;;;;;29.85;24.52;;;;;;;10.64;100.00;101261.50;5073868;28;20102;-71
2022/06/01 05:03:37;;;;;;;30.58;25.52;;;;;;;10.70;100.00;101263.75;5074078;28;20056;-71
2022/06/01 05:06:05;;;;;;;31.98;25.88;;;;;;;10.74;100.00;101265.25;5074436;28;20080;-72
2022/06/01 05:08:33;;;;;;;33.35;26.50;;;;;;;10.79;100.00;101270.25;5074226;28;20438;-72
2022/06/01 05:11:02;;;;;;;33.50;27.13;;;;;;;10.94;100.00;101274.59;5074336;28;20044;-72
2022/06/01 05:13:32;;;;;;;32.90;25.52;;;;;;;11.03;100.00;101262.69;5074501;28;20518;-72
2022/06/01 05:16:02;;;;;;;32.05;25.63;;;;;;;11.09;100.00;101264.94;5074554;28;20109;-72
2022/06/01 05:18:31;;;;;;;31.25;26.05;;;;;;;11.16;100.00;101262.78;5074379;28;20491;-72
2022/06/01 05:20:59;;;;;;;32.50;25.13;;;;;;;11.17;100.00;101267.13;5074068;28;20522;-72
2022/06/01 05:23:27;;;;;;;32.00;23.73;;;;;;;11.21;100.00;101266.00;5074088;28;20048;-71
2022/06/01 05:25:55;;;;;;;30.48;23.08;;;;;;;11.24;100.00;101267.59;5074190;28;20106;-72
2022/06/01 05:28:27;;;;;;;30.70;22.90;;;;;;;11.27;100.00;101268.22;5073989;28;20052;-71
2022/06/01 05:30:58;;;;;;;28.08;22.88;;;;;;;11.26;100.00;101271.81;5073992;28;20036;-72
2022/06/01 05:33:27;;;;;;;31.15;22.40;;;;;;;11.22;100.00;101272.09;5073744;28;20064;-72
2022/06/01 05:35:55;;;;;;;27.77;21.35;;;;;;;11.25;100.00;101269.28;5074047;28;20047;-72
2022/06/01 05:38:23;;;;;;;27.38;21.38;;;;;;;11.26;100.00;101271.81;5073805;28;20044;-71
2022/06/01 05:40:52;;;;;;;24.30;20.23;;;;;;;11.31;100.00;101275.00;5073912;28;20536;-72
2022/06/01 05:43:20;;;;;;;23.60;19.20;;;;;;;11.35;100.00;101277.47;5073738;28;20049;-71
2022/06/01 05:45:49;;;;;;;25.88;20.25;;;;;;;11.43;100.00;101273.41;5073566;28;20094;-72
2022/06/01 05:48:21;;;;;;;23.25;20.05;;;;;;;11.54;100.00;101274.53;5073821;28;20098;-72
2022/06/01 05:50:50;;;;;;;27.90;19.75;;;;;;;11.62;100.00;101275.75;5073447;28;20048;-72
2022/06/01 05:53:18;;;;;;;25.25;19.88;;;;;;;11.71;100.00;101274.34;5073578;28;20040;-69
2022/06/01 05:55:46;;;;;;;26.98;20.27;;;;;;;11.77;100.00;101278.38;5073808;28;20052;-69
2022/06/01 05:58:17;;;;;;;25.33;19.73;;;;;;;11.90;100.00;101281.06;5073850;28;20072;-69
2022/06/01 06:00:46;;;;;;;25.95;19.35;;;;;;;11.95;100.00;101279.84;5073605;28;20491;-68
2022/06/01 06:03:15;;;;;;;22.83;18.50;;;;;;;12.03;100.00;101273.25;5073426;28;20048;-70
2022/06/01 06:08:38;;;;;;;23.20;18.27;;;;;;;12.29;100.00;101276.81;5073239;28;20044;-70
2022/06/01 06:11:13;;;;;;;20.33;16.13;;;;;;;12.40;100.00;101284.03;5072718;28;20445;-70
2022/06/01 06:13:41;;;;;;;19.85;15.27;;;;;;;12.45;100.00;101279.31;5071912;28;20143;-70
2022/06/01 06:16:10;;;;;;;17.55;15.48;;;;;;;12.57;100.00;101290.81;5073158;28;20067;-69
2022/06/01 06:18:38;;;;;;;17.42;13.55;;;;;;;12.67;100.00;101295.38;5073044;28;20403;-69
2022/06/01 06:21:08;;;;;;;18.88;12.52;;;;;;;12.74;100.00;101302.91;5072972;28;20491;-69
2022/06/01 06:23:36;;;;;;;16.33;11.07;;;;;;;12.81;100.00;101301.53;5072666;28;20067;-70
2022/06/01 06:26:06;;;;;;;14.57;11.70;;;;;;;12.80;100.00;101300.69;5072797;28;20045;-70
2022/06/01 06:28:34;;;;;;;15.55;11.75;;;;;;;12.93;100.00;101297.22;5072970;28;20060;-69
2022/06/01 06:31:03;;;;;;;14.60;11.45;;;;;;;13.07;100.00;101304.19;5072781;28;20456;-69
2022/06/01 06:33:31;;;;;;;14.32;11.18;;;;;;;13.20;100.00;101307.69;5072877;28;20040;-69
2022/06/01 06:36:02;;;;;;;13.73;10.80;;;;;;;13.27;100.00;101316.03;5072724;28;20044;-69
2022/06/01 06:38:35;;;;;;;17.60;11.70;;;;;;;13.41;100.00;101312.47;5072760;28;20049;-69
2022/06/01 06:41:04;;;;;;;12.82;10.35;;;;;;;13.55;100.00;101319.44;5072731;28;20044;-69
2022/06/01 06:43:35;;;;;;;15.10;9.93;;;;;;;13.62;100.00;101318.03;5072386;28;20048;-69
2022/06/01 06:46:06;;;;;;;13.57;10.82;;;;;;;13.75;100.00;101325.97;5072585;28;20549;-69
2022/06/01 06:48:35;;;;;;;14.55;11.10;;;;;;;13.91;100.00;101325.72;5072683;28;20052;-69
2022/06/01 06:51:04;;;;;;;14.23;10.93;;;;;;;14.07;100.00;101321.00;5072438;28;20090;-69
2022/06/01 06:53:34;;;;;;;13.32;11.48;;;;;;;14.24;100.00;101325.06;5072538;28;20044;-70
2022/06/01 06:56:03;;;;;;;15.15;11.35;;;;;;;14.34;100.00;101326.09;5072431;28;20041;-69
2022/06/01 06:58:31;;;;;;;14.57;11.38;;;;;;;14.42;100.00;101322.84;5072149;28;20071;-69
2022/06/01 07:00:59;;;;;;;14.75;11.93;;;;;;;14.50;100.00;101332.88;5072624;28;20521;-69
2022/06/01 07:03:27;;;;;;;15.00;11.50;;;;;;;14.66;100.00;101329.97;5072148;28;20082;-68
2022/06/01 07:06:12;;;;;;;13.38;10.43;;;;;;;14.75;97.92;101326.66;5072399;28;20123;-69
2022/06/01 07:08:44;;;;;;;13.98;10.65;;;;;;;14.95;100.00;101327.75;5072037;28;20040;-69
2022/06/01 07:11:14;;;;;;;16.10;10.35;;;;;;;15.04;95.40;101328.88;5072098;28;20041;-69
2022/06/01 07:13:43;;;;;;;29.15;11.02;;;;;;;15.25;98.33;101334.31;5071858;28;20048;-70
2022/06/01 07:16:12;;;;;;;12.85;9.02;;;;;;;15.25;92.93;101339.63;5072000;28;20053;-69
2022/06/01 07:18:43;;;;;;;12.23;8.70;;;;;;;15.44;93.00;101333.75;5071898;28;20113;-68
2022/06/01 07:21:11;;;;;;;9.68;7.80;;;;;;;15.42;91.04;101340.97;5071875;28;20036;-70
2022/06/01 07:23:41;;;;;;;14.70;8.55;;;;;;;15.48;90.32;101345.78;5071068;28;20384;-70
2022/06/01 07:26:13;;;;;;;11.80;8.20;;;;;;;15.54;91.04;101341.81;5071790;28;20055;-70
2022/06/01 07:28:41;;;;;;;11.27;7.63;;;;;;;15.59;86.92;101341.47;5071927;28;20048;-70
2022/06/01 07:31:10;;;;;;;12.30;7.82;;;;;;;15.68;90.42;101343.41;5071887;28;20064;-70
2022/06/01 07:33:38;;;;;;;12.05;7.72;;;;;;;15.79;89.60;101342.53;5071723;28;20485;-70
2022/06/01 07:36:09;;;;;;;10.02;7.10;;;;;;;15.91;89.45;101357.53;5071788;28;20044;-70
2022/06/01 07:44:29;;;;;;;10.40;6.78;;;;;;;16.48;85.14;101352.06;5029100;28;20072;-70
2022/06/01 07:46:58;;;;;;;10.52;7.60;;;;;;;16.72;87.49;101346.53;5055336;28;20106;-70
2022/06/01 07:49:46;;;;;;;9.40;6.80;;;;;;;16.66;85.07;101353.22;5071452;28;20044;-70
2022/06/01 07:52:34;;;;;;;8.75;5.75;;;;;;;16.64;81.04;101349.81;5071212;28;20047;-70
2022/06/01 07:55:02;;;;;;;10.85;5.60;;;;;;;16.89;81.06;101353.13;5071445;28;20048;-70
2022/06/01 07:57:33;;;;;;;7.78;4.95;;;;;;;17.16;81.21;101360.56;5071452;28;20041;-70
2022/06/01 08:00:01;;;;;;;7.80;4.60;;;;;;;17.12;77.06;101350.34;5071572;28;20057;-71
2022/06/01 08:02:29;;;;;;;8.27;5.07;;;;;;;16.90;75.83;101349.50;5071714;28;20045;-70
2022/06/01 08:04:58;;;;;;;8.05;4.75;;;;;;;17.05;78.25;101348.19;5071641;28;20060;-70
2022/06/01 08:07:26;;;;;;;7.88;4.38;;;;;;;17.22;76.94;101351.25;5071609;28;20048;-70
2022/06/01 08:09:54;;;;;;;7.93;3.65;;;;;;;16.98;72.95;101355.00;5071302;28;20056;-70
2022/06/01 08:15:10;;;;;;;7.88;4.15;;;;;;;17.16;74.85;101354.41;5071310;28;20044;-70
2022/06/01 08:17:47;;;;;;;6.15;3.55;;;;;;;17.25;74.45;101356.31;5071287;28;20441;-70
2022/06/01 08:20:16;;;;;;;6.50;3.80;;;;;;;17.34;72.72;101359.97;5071168;28;20127;-70
2022/06/01 08:22:45;;;;;;;7.75;3.60;;;;;;;17.71;73.53;101356.78;5071281;28;20072;-70
2022/06/01 08:25:16;;;;;;;6.57;3.80;;;;;;;17.92;71.02;101347.94;5071306;28;20041;-70
2022/06/01 08:27:44;;;;;;;7.43;3.90;;;;;;;18.35;71.21;101355.59;5071176;28;20589;-70
2022/06/01 08:30:15;;;;;;;6.80;3.72;;;;;;;18.21;67.35;101351.47;5071316;28;20056;-70
2022/06/01 08:32:43;;;;;;;7.35;4.03;;;;;;;18.18;68.84;101356.25;5069568;28;20503;-69
2022/06/01 08:35:14;;;;;;;6.97;4.40;;;;;;;18.03;68.37;101345.16;5074170;28;20041;-69
2022/06/01 08:37:42;;;;;;;10.32;4.07;;;;;;;18.18;69.94;101348.28;5075095;28;20640;-71
2022/06/01 08:40:11;;;;;;;7.30;4.00;;;;;;;18.50;67.48;101349.84;5075206;28;20091;-70
2022/06/01 08:42:43;;;;;;;10.45;5.05;;;;;;;18.54;66.85;101346.78;5075106;28;20430;-70
2022/06/01 08:45:14;;;;;;;7.30;4.40;;;;;;;18.78;67.81;101336.66;5074978;28;20052;-71
2022/06/01 08:47:43;;;;;;;7.20;4.07;;;;;;;19.08;67.06;101336.50;5075062;28;20044;-71
2022/06/01 08:50:20;;;;;;;6.93;4.03;;;;;;;19.11;63.35;101343.34;5074798;28;20407;-71
2022/06/01 08:52:48;;;;;;;8.00;3.70;;;;;;;19.06;64.05;101349.13;5074892;28;20071;-69
2022/06/01 08:55:17;;;;;;;6.22;3.28;;;;;;;19.20;65.96;101341.66;5075278;28;20105;-71
2022/06/01 08:57:53;;;;;;;5.65;3.42;;;;;;;19.42;60.41;101335.97;5074655;28;20515;-70
2022/06/01 09:00:24;;;;;;;5.68;3.05;;;;;;;19.25;61.00;101355.38;5074728;28;20052;-70
2022/06/01 09:03:02;;;;;;;7.83;3.30;;;;;;;19.20;64.71;101347.00;5074654;28;20049;-71
2022/06/01 09:05:42;;;;;;;8.85;3.67;;;;;;;19.47;62.54;101351.56;5074608;28;20401;-71
2022/06/01 09:08:17;;;;;;;4.90;2.50;;;;;;;19.55;58.81;101341.00;5074621;28;20052;-71
2022/06/01 09:10:58;;;;;;;5.03;3.10;;;;;;;19.16;60.47;101348.28;5074514;28;20052;-71
2022/06/01 09:13:38;;;;;;;7.25;3.00;;;;;;;19.33;57.17;101346.66;5074196;28;20048;-70
2022/06/01 09:16:14;;;;;;;6.70;2.80;;;;;;;19.74;59.89;101336.53;5074489;28;20072;-71
2022/06/01 09:18:46;;;;;;;5.78;2.95;;;;;;;19.92;58.76;101340.13;5074397;28;20076;-71
2022/06/01 09:24:07;;;;;;;5.20;2.70;;;;;;;20.42;57.28;101328.13;5074180;28;20053;-64
2022/06/01 09:26:35;;;;;;;3.92;2.33;;;;;;;20.81;56.43;101336.84;5074093;28;20124;-64
2022/06/01 09:29:03;;;;;;;5.82;2.33;;;;;;;20.89;55.63;101339.56;5074547;28;20052;-64
2022/06/01 09:31:38;;;;;;;4.22;2.28;;;;;;;20.37;53.68;101321.53;5074121;28;20151;-65
2022/06/01 09:34:26;;;;;;;8.48;2.80;;;;;;;20.49;53.39;101344.38;5074056;28;20049;-64
2022/06/01 09:37:03;;;;;;;5.82;2.45;;;;;;;20.36;55.42;101338.59;5074045;28;20049;-63
2022/06/01 09:39:32;;;;;;;5.20;3.05;;;;;;;20.19;54.67;101343.75;5074048;28;20048;-69
2022/06/01 09:42:15;;;;;;;5.97;3.00;;;;;;;20.38;58.72;101339.25;5073964;28;20044;-70
2022/06/01 09:44:46;;;;;;;5.97;2.50;;;;;;;20.57;59.65;101341.78;5073752;28;20499;-70
2022/06/01 09:47:36;;;;;;;5.72;3.42;;;;;;;20.63;56.44;101343.00;5073183;28;20053;-69
2022/06/01 09:50:20;;;;;;;6.30;3.72;;;;;;;20.65;54.96;101343.66;5073992;28;20053;-71
2022/06/01 09:52:49;;;;;;;5.38;3.40;;;;;;;20.92;56.93;101339.25;5073657;28;20507;-69
2022/06/01 09:55:20;;;;;;;6.00;3.20;;;;;;;20.83;54.46;101338.34;5073862;28;20068;-70
2022/06/01 09:58:01;;;;;;;7.95;3.88;;;;;;;20.79;54.50;101339.63;5073653;28;20047;-69
2022/06/01 10:06:20;;;;;;;6.45;3.83;;;;;;;19.22;58.18;101377.00;5073613;28;20055;-71
2022/06/01 10:09:01;;;;;;;7.88;4.50;;;;;;;19.03;67.03;101385.88;5073575;28;20102;-70
2022/06/01 10:11:33;;;;;;;6.63;2.70;;;;;;;18.16;59.04;101376.84;5073537;28;20507;-67
2022/06/01 10:14:18;;;;;;;5.10;2.10;;;;;;;18.08;64.51;101378.38;5073241;28;20048;-69
2022/06/01 10:17:09;;;;;;;6.22;2.10;;;;;;;17.73;69.54;101368.13;5072170;28;20135;-70
2022/06/01 10:19:42;;;;;;;5.35;2.40;;;;;;;18.13;76.75;101375.28;5073207;28;20044;-70
2022/06/01 10:22:19;;;;;;;5.43;2.40;;;;;;;18.20;80.19;101375.56;5073085;28;20131;-70
2022/06/01 10:24:53;;;;;;;5.10;3.10;;;;;;;18.45;76.73;101370.72;5073115;28;20045;-70
2022/06/01 10:27:28;;;;;;;5.22;3.10;;;;;;;18.73;75.45;101367.25;5075624;28;20530;-70
2022/06/01 10:30:13;;;;;;;5.95;3.00;;;;;;;18.86;73.94;101377.59;5073070;28;20040;-70
2022/06/01 10:32:48;;;;;;;4.00;3.10;;;;;;;19.16;77.46;101377.59;5073002;28;20039;-70
2022/06/01 10:35:27;;;;;;;4.65;3.10;;;;;;;19.14;74.08;101367.09;5072907;28;20059;-70
2022/06/01 10:38:04;;;;;;;5.25;2.88;;;;;;;19.37;68.36;101372.94;5072834;28;20052;-70
2022/06/01 10:40:40;;;;;;;5.13;3.17;;;;;;;19.28;71.74;101372.94;5072775;28;20052;-70
2022/06/01 10:43:18;;;;;;;5.82;3.20;;;;;;;18.90;70.11;101378.19;5071745;28;20064;-69
2022/06/01 10:45:53;;;;;;;5.65;3.20;;;;;;;18.58;75.46;101379.28;5072816;28;20060;-69
2022/06/01 10:48:28;;;;;;;8.25;3.63;;;;;;;18.62;75.87;101378.00;5072569;28;20044;-70
2022/06/01 10:51:09;;;;;;;5.90;3.65;;;;;;;18.76;73.68;101384.78;5072572;28;20037;-70
2022/06/01 10:53:57;;;;;;;6.25;3.70;;;;;;;18.32;73.09;101398.44;5071061;28;20076;-70
2022/06/01 10:56:26;;;;;;;7.25;3.38;;;;;;;18.16;73.77;101390.13;5072416;28;20106;-69
2022/06/01 10:59:01;;;;;;;5.70;2.60;;;;;;;17.50;74.88;101397.56;5072715;28;20037;-69
2022/06/01 11:01:41;;;;;;;2.92;2.10;;;;;;;17.56;76.67;101409.47;5072908;28;20056;-69
2022/06/01 11:04:35;;;;;;;4.57;2.50;;;;;;;17.04;78.52;101410.28;5072254;28;20052;-69
2022/06/01 11:07:22;;;;;;;5.18;2.40;;;;;;;16.76;79.26;101401.09;5072222;28;20047;-69
2022/06/01 11:10:03;;;;;;;5.53;2.30;;;;;;;16.66;78.60;101406.31;5072313;28;20058;-70
2022/06/01 11:12:46;;;;;;;5.88;2.53;;;;;;;16.27;81.14;101400.63;5070571;28;20056;-69
2022/06/01 11:15:24;;;;;;;4.32;2.42;;;;;;;16.07;80.24;101409.34;5072019;28;20044;-69
2022/06/01 11:18:02;;;;;;;5.47;2.78;;;;;;;16.05;79.44;101388.25;5072067;28;20048;-69
2022/06/01 11:20:55;;;;;;;4.55;2.47;;;;;;;16.49;80.15;101390.91;5072059;28;20449;-71
2022/06/01 11:23:44;;;;;;;4.63;2.67;;;;;;;16.49;79.65;101393.56;5071909;28;20040;-69
2022/06/01 11:26:27;;;;;;;4.18;2.38;;;;;;;17.00;79.99;101382.31;5071939;28;20052;-71
2022/06/01 11:29:29;;;;;;;3.90;2.35;;;;;;;17.20;75.86;101385.91;5071824;28;20056;-69
2022/06/01 11:32:03;;;;;;;4.40;2.72;;;;;;;17.34;80.34;101384.75;5070511;28;20044;-68
2022/06/01 11:34:39;;;;;;;3.90;2.45;;;;;;;17.33;76.52;101388.38;5071799;28;20048;-69
2022/06/01 11:37:13;;;;;;;4.70;2.70;;;;;;;17.02;75.45;101388.31;5071589;28;20052;-71
2022/06/01 11:39:49;;;;;;;4.97;3.05;;;;;;;17.14;81.30;101386.44;5071569;28;20051;-70
2022/06/01 11:42:25;;;;;;;5.88;3.20;;;;;;;17.07;82.35;101387.94;5071718;28;20067;-70
2022/06/01 11:45:00;;;;;;;6.28;3.78;;;;;;;17.22;80.88;101396.44;5071565;28;20603;-71
2022/06/01 11:47:34;;;;;;;6.38;3.67;;;;;;;17.53;81.21;101396.44;5071521;28;20044;-71
2022/06/01 11:50:13;;;;;;;7.38;3.70;;;;;;;17.50;78.74;101397.56;5071674;28;20063;-71
2022/06/01 11:52:46;;;;;;;6.95;3.50;;;;;;;17.42;76.95;101401.84;5071496;28;20060;-71
2022/06/01 11:55:43;;;;;;;6.22;3.55;;;;;;;17.45;76.04;101401.59;5071412;28;20044;-71
2022/06/01 11:58:13;;;;;;;7.38;3.67;;;;;;;17.27;75.18;101404.84;5071591;28;20048;-71
2022/06/01 12:00:51;;;;;;;5.30;3.50;;;;;;;17.72;79.79;101403.69;5071503;28;20055;-72
2022/06/01 12:03:41;;;;;;;5.40;3.42;;;;;;;18.06;75.01;101396.31;5071117;28;20041;-72